createdAt,value
2023-02-13T00:01:36.932Z,10.80
2023-02-13T00:04:08.633Z,10.73
2023-02-13T00:06:40.341Z,10.13
2023-02-13T00:09:12.108Z,11.27
2023-02-13T00:11:44.052Z,10.53
2023-02-13T00:14:15.760Z,11.07
2023-02-13T00:16:47.507Z,11.20
2023-02-13T00:19:19.195Z,11.50
2023-02-13T00:21:50.928Z,9.70
2023-02-13T00:24:22.728Z,11.10
2023-02-13T00:26:54.523Z,10.13
2023-02-13T00:29:26.247Z,11.93
2023-02-13T00:31:58.209Z,11.77
2023-02-13T00:34:30.001Z,11.83
2023-02-13T00:37:01.710Z,11.47
2023-02-13T00:39:34.910Z,10.70
2023-02-13T00:42:06.647Z,9.57
2023-02-13T00:44:38.376Z,12.40
2023-02-13T00:47:10.434Z,11.47
2023-02-13T00:49:42.183Z,11.57
2023-02-13T00:52:14.211Z,11.20
2023-02-13T00:54:47.241Z,12.13
2023-02-13T00:57:18.956Z,15.27
2023-02-13T00:59:51.150Z,15.10
2023-02-13T01:02:23.786Z,16.03
2023-02-13T01:04:55.508Z,16.83
2023-02-13T01:07:27.270Z,16.60
2023-02-13T01:09:58.985Z,17.77
2023-02-13T01:12:31.980Z,17.87
2023-02-13T01:15:05.599Z,15.80
2023-02-13T01:17:39.682Z,17.73
2023-02-13T01:20:13.095Z,15.83
2023-02-13T01:22:45.602Z,15.93
2023-02-13T01:25:17.481Z,15.20
2023-02-13T01:27:49.328Z,16.33
2023-02-13T01:30:22.684Z,15.83
2023-02-13T01:32:54.394Z,14.97
2023-02-13T01:35:26.185Z,14.13
2023-02-13T01:37:57.865Z,13.67
2023-02-13T01:40:30.035Z,13.50
2023-02-13T01:43:01.865Z,13.80
2023-02-13T01:45:33.684Z,13.43
2023-02-13T01:48:14.200Z,13.17
2023-02-13T01:51:02.348Z,13.30
2023-02-13T01:53:46.817Z,11.80
2023-02-13T01:56:35.857Z,14.87
2023-02-13T01:59:16.956Z,12.40
2023-02-13T02:01:49.470Z,12.47
2023-02-13T02:04:28.979Z,12.30
2023-02-13T02:07:24.589Z,12.67
2023-02-13T02:10:00.026Z,12.83
2023-02-13T02:12:50.566Z,12.87
2023-02-13T02:15:23.790Z,11.93
2023-02-13T02:17:55.586Z,13.17
2023-02-13T02:20:44.404Z,12.10
2023-02-13T02:23:43.771Z,12.33
2023-02-13T02:27:10.757Z,12.90
2023-02-13T02:30:11.736Z,11.93
2023-02-13T02:33:07.833Z,12.87
2023-02-13T02:36:08.768Z,13.53
2023-02-13T02:38:47.065Z,13.57
2023-02-13T02:41:42.231Z,13.80
2023-02-13T02:44:56.999Z,13.43
2023-02-13T02:47:53.324Z,11.53
2023-02-13T02:50:31.261Z,14.03
2023-02-13T02:53:17.970Z,12.23
2023-02-13T02:56:13.712Z,14.20
2023-02-13T02:59:06.187Z,13.60
2023-02-13T03:01:59.542Z,12.77
2023-02-13T03:04:58.861Z,13.83
2023-02-13T03:07:31.016Z,12.73
2023-02-13T03:10:36.701Z,13.13
2023-02-13T03:13:23.808Z,12.93
2023-02-13T03:16:18.083Z,13.17
2023-02-13T03:19:14.591Z,11.80
2023-02-13T03:22:10.275Z,12.53
2023-02-13T03:24:58.473Z,12.40
2023-02-13T03:28:04.480Z,11.47
2023-02-13T03:30:51.418Z,13.17
2023-02-13T03:33:41.716Z,11.17
2023-02-13T03:36:59.407Z,12.30
2023-02-13T03:39:46.300Z,11.60
2023-02-13T03:42:30.797Z,12.10
2023-02-13T03:45:27.881Z,12.27
2023-02-13T03:48:09.597Z,12.43
2023-02-13T03:50:44.950Z,13.93
2023-02-13T03:53:17.295Z,12.53
2023-02-13T03:56:08.281Z,15.07
2023-02-13T03:59:03.788Z,12.43
2023-02-13T04:01:37.514Z,13.43
2023-02-13T04:04:17.637Z,15.43
2023-02-13T04:06:52.137Z,14.17
2023-02-13T04:09:29.293Z,12.63
2023-02-13T04:12:18.841Z,12.50
2023-02-13T04:15:02.802Z,12.43
2023-02-13T04:17:39.092Z,12.73
2023-02-13T04:20:11.894Z,13.37
2023-02-13T04:22:46.051Z,11.80
2023-02-13T04:25:18.658Z,12.73
2023-02-13T04:27:50.417Z,12.17
2023-02-13T04:30:22.124Z,13.37
2023-02-13T04:32:53.826Z,15.63
2023-02-13T04:35:26.245Z,12.67
2023-02-13T04:37:58.032Z,12.07
2023-02-13T04:40:29.795Z,13.03
2023-02-13T04:43:01.520Z,12.90
2023-02-13T04:45:33.245Z,13.87
2023-02-13T04:48:04.950Z,13.07
2023-02-13T04:50:36.650Z,12.57
2023-02-13T04:53:08.854Z,12.70
2023-02-13T04:55:40.778Z,12.30
2023-02-13T04:58:12.604Z,13.07
2023-02-13T05:00:44.467Z,12.67
2023-02-13T05:03:16.202Z,12.23
2023-02-13T05:05:49.351Z,11.47
2023-02-13T05:08:21.103Z,13.30
2023-02-13T05:10:52.799Z,12.43
2023-02-13T05:13:24.542Z,12.50
2023-02-13T05:15:56.434Z,13.13
2023-02-13T05:18:28.188Z,11.97
2023-02-13T05:21:18.613Z,12.43
2023-02-13T05:23:50.293Z,12.17
2023-02-13T05:26:22.012Z,11.97
2023-02-13T05:29:12.618Z,13.43
2023-02-13T05:31:48.167Z,12.47
2023-02-13T05:34:21.476Z,11.37
2023-02-13T05:36:54.156Z,13.00
2023-02-13T05:39:25.897Z,11.70
2023-02-13T05:41:57.627Z,13.17
2023-02-13T05:44:29.335Z,11.80
2023-02-13T05:47:01.084Z,11.33
2023-02-13T05:49:32.804Z,12.43
2023-02-13T05:52:04.655Z,11.30
2023-02-13T05:54:38.403Z,11.90
2023-02-13T05:57:10.192Z,12.27
2023-02-13T05:59:42.166Z,11.20
2023-02-13T06:02:13.908Z,12.00
2023-02-13T06:04:45.624Z,12.17
2023-02-13T06:07:17.661Z,11.80
2023-02-13T06:09:49.477Z,9.43
2023-02-13T06:12:21.217Z,9.97
2023-02-13T06:14:52.901Z,10.03
2023-02-13T06:17:24.655Z,10.73
2023-02-13T06:19:56.481Z,9.90
2023-02-13T06:22:28.201Z,9.93
2023-02-13T06:24:59.928Z,9.40
2023-02-13T06:27:31.684Z,10.57
2023-02-13T06:30:03.557Z,9.83
2023-02-13T06:32:35.307Z,9.13
2023-02-13T06:35:07.686Z,10.10
2023-02-13T06:37:39.584Z,10.13
2023-02-13T06:40:13.907Z,11.33
2023-02-13T06:42:45.994Z,10.50
2023-02-13T06:45:17.728Z,9.63
2023-02-13T06:47:50.160Z,10.03
2023-02-13T06:50:21.923Z,10.73
2023-02-13T06:52:53.723Z,11.97
2023-02-13T06:55:25.418Z,10.40
2023-02-13T06:57:57.170Z,10.33
2023-02-13T07:00:28.911Z,10.23
2023-02-13T07:03:06.132Z,10.23
2023-02-13T07:05:41.935Z,10.37
2023-02-13T07:08:13.695Z,9.43
2023-02-13T07:10:45.526Z,10.13
2023-02-13T07:13:17.288Z,10.03
2023-02-13T07:15:49.049Z,10.77
2023-02-13T07:18:20.770Z,10.53
2023-02-13T07:20:52.435Z,10.10
2023-02-13T07:23:24.154Z,9.60
2023-02-13T07:25:59.593Z,9.73
2023-02-13T07:28:31.495Z,10.83
2023-02-13T07:31:06.851Z,9.80
2023-02-13T07:33:38.926Z,10.20
2023-02-13T07:36:10.675Z,10.07
2023-02-13T07:38:42.394Z,9.37
2023-02-13T07:41:14.100Z,10.23
2023-02-13T07:43:45.911Z,10.33
2023-02-13T07:46:17.670Z,11.20
2023-02-13T07:48:51.694Z,9.90
2023-02-13T07:51:25.390Z,9.63
2023-02-13T07:53:57.700Z,9.93
2023-02-13T07:56:29.505Z,10.83
2023-02-13T07:59:01.226Z,10.40
2023-02-13T08:01:32.992Z,11.33
2023-02-13T08:04:04.861Z,9.57
2023-02-13T08:06:40.394Z,11.67
2023-02-13T08:09:40.769Z,8.87
2023-02-13T08:12:12.769Z,10.63
2023-02-13T08:14:44.774Z,10.00
2023-02-13T08:17:16.548Z,11.00
2023-02-13T08:19:49.480Z,11.87
2023-02-13T08:22:21.157Z,9.60
2023-02-13T08:24:53.039Z,9.43
2023-02-13T08:27:24.783Z,10.67
2023-02-13T08:29:57.868Z,10.23
2023-02-13T08:32:29.640Z,10.13
2023-02-13T08:35:01.509Z,10.50
2023-02-13T08:37:33.247Z,10.23
2023-02-13T08:40:05.512Z,9.77
2023-02-13T08:42:37.948Z,10.23
2023-02-13T08:45:11.626Z,9.37
2023-02-13T08:47:43.400Z,9.87
2023-02-13T08:50:15.341Z,10.00
2023-02-13T08:52:47.069Z,10.10
2023-02-13T08:55:19.071Z,9.80
2023-02-13T08:57:50.758Z,9.30
2023-02-13T09:00:22.727Z,9.40
2023-02-13T09:02:54.512Z,8.63
2023-02-13T09:05:26.370Z,8.67
2023-02-13T09:08:03.576Z,9.83
2023-02-13T09:10:35.366Z,10.20
2023-02-13T09:13:07.692Z,9.67
2023-02-13T09:15:40.736Z,8.90
2023-02-13T09:18:12.488Z,9.73
2023-02-13T09:20:44.409Z,9.67
2023-02-13T09:23:16.128Z,9.60
2023-02-13T09:25:47.857Z,10.50
2023-02-13T09:28:19.631Z,9.60
2023-02-13T09:30:51.413Z,9.20
2023-02-13T09:33:23.968Z,9.40
2023-02-13T09:35:55.831Z,9.63
2023-02-13T09:38:27.717Z,9.67
2023-02-13T09:41:17.458Z,10.20
2023-02-13T09:43:53.309Z,10.13
2023-02-13T09:46:45.563Z,9.70
2023-02-13T09:49:30.428Z,10.60
2023-02-13T09:52:02.357Z,10.07
2023-02-13T09:54:35.734Z,10.80
2023-02-13T09:57:23.024Z,9.73
2023-02-13T10:00:17.448Z,10.37
2023-02-13T10:02:55.399Z,10.70
2023-02-13T10:05:37.745Z,10.07
2023-02-13T10:08:45.264Z,9.97
2023-02-13T10:11:29.189Z,9.63
2023-02-13T10:14:19.793Z,10.17
2023-02-13T10:16:58.702Z,9.63
2023-02-13T10:19:42.940Z,9.93
2023-02-13T10:22:18.177Z,9.93
2023-02-13T10:25:15.985Z,10.17
2023-02-13T10:27:53.122Z,9.93
2023-02-13T10:30:32.035Z,9.07
2023-02-13T10:33:54.316Z,9.77
2023-02-13T10:36:29.645Z,9.57
2023-02-13T10:39:06.202Z,10.17
2023-02-13T10:41:49.724Z,9.83
2023-02-13T10:44:44.313Z,9.60
2023-02-13T10:47:26.597Z,10.73
2023-02-13T10:50:36.756Z,9.20
2023-02-13T10:53:34.343Z,11.43
2023-02-13T10:56:24.050Z,10.77
2023-02-13T10:59:13.535Z,11.43
2023-02-13T11:01:53.632Z,11.40
2023-02-13T11:04:25.447Z,12.00
2023-02-13T11:07:02.370Z,12.30
2023-02-13T11:09:39.909Z,12.30
2023-02-13T11:12:25.753Z,13.10
2023-02-13T11:15:00.388Z,12.87
2023-02-13T11:17:36.900Z,13.43
2023-02-13T11:20:29.771Z,13.83
2023-02-13T11:23:29.294Z,12.93
2023-02-13T11:26:10.632Z,12.47
2023-02-13T11:28:54.295Z,12.57
2023-02-13T11:31:29.805Z,12.53
2023-02-13T11:34:24.894Z,11.77
2023-02-13T11:37:17.451Z,11.97
2023-02-13T11:39:52.444Z,12.10
2023-02-13T11:42:34.443Z,12.20
2023-02-13T11:45:20.544Z,12.77
2023-02-13T11:47:54.674Z,12.73
2023-02-13T11:50:35.051Z,12.77
2023-02-13T11:53:20.804Z,11.83
2023-02-13T11:56:08.978Z,13.13
2023-02-13T11:58:42.217Z,14.03
2023-02-13T12:01:20.127Z,13.70
2023-02-13T12:04:18.104Z,12.57
2023-02-13T12:07:15.165Z,12.60
2023-02-13T12:09:51.346Z,14.17
2023-02-13T12:12:33.009Z,13.47
2023-02-13T12:15:19.271Z,13.07
2023-02-13T12:18:11.094Z,12.23
2023-02-13T12:20:48.772Z,13.00
2023-02-13T12:23:42.203Z,13.63
2023-02-13T12:26:25.802Z,13.20
2023-02-13T12:29:00.601Z,12.40
2023-02-13T12:31:50.909Z,13.57
2023-02-13T12:35:00.164Z,12.60
2023-02-13T12:37:34.956Z,11.57
2023-02-13T12:40:15.622Z,12.53
2023-02-13T12:43:16.959Z,12.20
2023-02-13T12:46:04.397Z,13.23
2023-02-13T12:48:43.951Z,12.00
2023-02-13T12:51:29.392Z,11.23
2023-02-13T12:54:34.623Z,12.43
2023-02-13T12:57:24.205Z,11.63
2023-02-13T13:00:29.621Z,10.73
2023-02-13T13:03:25.397Z,12.53
2023-02-13T13:06:12.089Z,12.20
2023-02-13T13:09:01.687Z,12.13
2023-02-13T13:11:51.587Z,10.53
2023-02-13T13:14:36.156Z,10.63
2023-02-13T13:17:35.286Z,12.07
2023-02-13T13:20:24.964Z,11.83
2023-02-13T13:23:17.516Z,11.60
2023-02-13T13:26:13.034Z,12.10
2023-02-13T13:28:52.512Z,11.00
2023-02-13T13:31:26.606Z,11.83
2023-02-13T13:34:02.487Z,12.10
2023-02-13T13:36:54.436Z,11.60
2023-02-13T13:39:46.758Z,11.83
2023-02-13T13:42:27.745Z,11.47
2023-02-13T13:45:23.176Z,11.23
2023-02-13T13:48:10.037Z,11.73
2023-02-13T13:50:43.593Z,11.70
2023-02-13T13:53:20.216Z,12.43
2023-02-13T13:56:02.704Z,12.43
2023-02-13T13:58:40.226Z,12.50
2023-02-13T14:01:14.979Z,11.40
2023-02-13T14:03:52.403Z,12.30
2023-02-13T14:06:26.046Z,10.70
2023-02-13T14:09:06.164Z,11.43
2023-02-13T14:11:46.781Z,11.97
2023-02-13T14:14:27.932Z,11.90
2023-02-13T14:17:04.049Z,10.17
2023-02-13T14:21:04.499Z,10.90
2023-02-13T14:23:42.372Z,10.27
2023-02-13T14:26:16.881Z,11.03
2023-02-13T14:28:51.450Z,9.87
2023-02-13T14:31:35.591Z,10.83
2023-02-13T14:34:15.003Z,10.03
2023-02-13T14:36:59.127Z,11.97
2023-02-13T14:39:35.482Z,10.23
2023-02-13T14:42:27.046Z,11.90
2023-02-13T14:45:01.033Z,10.23
2023-02-13T14:47:36.281Z,11.00
2023-02-13T14:50:15.267Z,11.03
2023-02-13T14:52:48.315Z,9.50
2023-02-13T14:55:42.334Z,10.23
2023-02-13T14:58:24.964Z,10.07
2023-02-13T15:01:19.781Z,10.13
2023-02-13T15:03:57.574Z,9.60
2023-02-13T15:06:34.471Z,9.73
2023-02-13T15:09:21.906Z,11.23
2023-02-13T15:11:53.664Z,10.60
2023-02-13T15:14:33.303Z,9.47
2023-02-13T15:17:18.334Z,9.87
2023-02-13T15:19:55.860Z,11.17
2023-02-13T15:22:37.244Z,9.70
2023-02-13T15:25:20.531Z,11.10
2023-02-13T15:27:58.491Z,10.83
2023-02-13T15:30:38.027Z,11.57
2023-02-13T15:33:21.064Z,11.00
2023-02-13T15:36:01.886Z,10.93
2023-02-13T15:38:39.367Z,10.83
2023-02-13T15:41:21.689Z,10.87
2023-02-13T15:43:57.069Z,11.67
2023-02-13T15:46:30.488Z,11.57
2023-02-13T15:49:08.146Z,11.10
2023-02-13T15:51:39.992Z,11.17
2023-02-13T15:54:26.841Z,11.47
2023-02-13T15:57:02.481Z,11.77
2023-02-13T15:59:37.282Z,10.77
2023-02-13T16:02:16.384Z,10.80
2023-02-13T16:04:51.482Z,11.00
2023-02-13T16:07:23.254Z,10.57
2023-02-13T16:10:15.741Z,11.20
2023-02-13T16:12:48.544Z,10.43
2023-02-13T16:15:22.364Z,11.47
2023-02-13T16:17:54.362Z,11.10
2023-02-13T16:20:30.437Z,11.30
2023-02-13T16:23:13.448Z,10.87
2023-02-13T16:25:47.447Z,10.80
2023-02-13T16:28:25.563Z,10.80
2023-02-13T16:31:02.963Z,11.47
2023-02-13T16:33:44.189Z,11.43
2023-02-13T16:36:15.881Z,10.23
2023-02-13T16:38:49.834Z,10.73
2023-02-13T16:41:28.791Z,10.03
2023-02-13T16:44:04.908Z,11.37
2023-02-13T16:46:41.825Z,11.17
2023-02-13T16:49:16.953Z,11.17
2023-02-13T16:52:20.058Z,10.80
2023-02-13T16:55:02.873Z,10.63
2023-02-13T16:57:34.892Z,11.17
2023-02-13T17:00:21.895Z,11.83
2023-02-13T17:02:54.339Z,11.67
2023-02-13T17:05:29.392Z,11.43
2023-02-13T17:08:01.554Z,12.03
2023-02-13T17:10:36.451Z,10.63
2023-02-13T17:13:19.259Z,10.93
2023-02-13T17:15:52.102Z,10.90
2023-02-13T17:18:23.974Z,11.60
2023-02-13T17:20:55.843Z,10.73
2023-02-13T17:23:27.670Z,10.47
2023-02-13T17:25:59.353Z,11.40
2023-02-13T17:28:32.537Z,11.03
2023-02-13T17:31:08.709Z,10.57
2023-02-13T17:33:41.130Z,10.30
2023-02-13T17:36:13.464Z,10.30
2023-02-13T17:38:45.308Z,12.10
2023-02-13T17:41:17.360Z,10.83
2023-02-13T17:43:49.058Z,11.30
2023-02-13T17:46:20.923Z,11.83
2023-02-13T17:48:52.782Z,12.23
2023-02-13T17:51:24.523Z,11.43
2023-02-13T17:53:56.308Z,11.63
2023-02-13T17:56:28.046Z,12.43
2023-02-13T17:58:59.747Z,12.13
2023-02-13T18:01:31.509Z,13.00
2023-02-13T18:04:03.387Z,11.70
2023-02-13T18:06:35.156Z,12.77
2023-02-13T18:09:06.851Z,11.63
2023-02-13T18:11:38.596Z,11.87
2023-02-13T18:14:10.323Z,12.27
2023-02-13T18:16:42.150Z,11.97
2023-02-13T18:19:14.019Z,11.97
2023-02-13T18:21:45.764Z,13.23
2023-02-13T18:24:17.554Z,11.70
2023-02-13T18:26:49.370Z,12.07
2023-02-13T18:29:21.142Z,12.87
2023-02-13T18:31:54.199Z,11.60
2023-02-13T18:34:26.147Z,14.33
2023-02-13T18:36:57.880Z,11.50
2023-02-13T18:39:29.573Z,12.17
2023-02-13T18:42:01.727Z,11.23
2023-02-13T18:44:33.880Z,12.83
2023-02-13T18:47:05.853Z,12.40
2023-02-13T18:49:37.638Z,11.33
2023-02-13T18:52:09.533Z,11.97
2023-02-13T18:54:41.239Z,11.37
2023-02-13T18:57:12.959Z,11.37
2023-02-13T18:59:44.795Z,11.73
2023-02-13T19:02:16.678Z,11.87
2023-02-13T19:04:48.400Z,11.43
2023-02-13T19:07:20.101Z,12.33
2023-02-13T19:09:51.916Z,10.93
2023-02-13T19:12:23.655Z,13.00
2023-02-13T19:14:55.392Z,11.37
2023-02-13T19:17:27.187Z,11.57
2023-02-13T19:19:58.913Z,11.80
2023-02-13T19:22:30.706Z,10.63
2023-02-13T19:25:02.442Z,12.73
2023-02-13T19:27:37.041Z,13.37
2023-02-13T19:30:10.519Z,14.20
2023-02-13T19:32:42.375Z,13.30
2023-02-13T19:35:14.239Z,12.53
2023-02-13T19:37:46.067Z,12.07
2023-02-13T19:40:17.939Z,12.13
2023-02-13T19:42:49.648Z,12.43
2023-02-13T19:45:21.863Z,14.47
2023-02-13T19:47:55.118Z,12.83
2023-02-13T19:50:26.905Z,13.60
2023-02-13T19:52:58.649Z,12.40
2023-02-13T19:55:30.533Z,13.17
2023-02-13T19:58:02.253Z,13.13
2023-02-13T20:00:33.990Z,12.23
2023-02-13T20:03:05.896Z,13.53
2023-02-13T20:05:41.117Z,12.97
2023-02-13T20:08:13.068Z,13.57
2023-02-13T20:10:45.842Z,12.63
2023-02-13T20:13:17.591Z,13.37
2023-02-13T20:15:49.855Z,14.03
2023-02-13T20:18:21.872Z,13.13
2023-02-13T20:20:54.255Z,11.70
2023-02-13T20:23:26.112Z,11.87
2023-02-13T20:26:13.794Z,12.03
2023-02-13T20:28:46.458Z,12.77
2023-02-13T20:31:20.811Z,12.97
2023-02-13T20:33:52.899Z,13.63
2023-02-13T20:36:27.576Z,14.23
2023-02-13T20:39:01.640Z,14.87
2023-02-13T20:41:36.462Z,16.33
2023-02-13T20:44:12.338Z,14.83
2023-02-13T20:46:44.156Z,14.03
2023-02-13T20:49:20.205Z,12.37
2023-02-13T20:51:52.406Z,12.60
2023-02-13T20:54:24.118Z,13.47
2023-02-13T20:56:55.806Z,14.27
2023-02-13T20:59:27.532Z,12.73
2023-02-13T21:01:59.346Z,13.43
2023-02-13T21:04:33.085Z,14.00
2023-02-13T21:07:09.173Z,11.37
2023-02-13T21:09:40.877Z,13.10
2023-02-13T21:12:12.924Z,12.97
2023-02-13T21:14:44.990Z,13.43
2023-02-13T21:17:16.697Z,12.50
2023-02-13T21:19:48.441Z,11.87
2023-02-13T21:22:20.174Z,11.13
2023-02-13T21:24:51.943Z,12.37
2023-02-13T21:27:23.705Z,12.40
2023-02-13T21:29:55.895Z,13.90
2023-02-13T21:32:27.604Z,13.73
2023-02-13T21:34:59.338Z,11.80
2023-02-13T21:37:31.214Z,13.47
2023-02-13T21:40:03.004Z,13.17
2023-02-13T21:42:34.684Z,12.33
2023-02-13T21:45:06.970Z,11.93
2023-02-13T21:47:38.722Z,11.93
2023-02-13T21:50:10.793Z,13.10
2023-02-13T21:52:42.483Z,13.63
2023-02-13T21:55:14.243Z,12.03
2023-02-13T21:57:45.991Z,11.53
2023-02-13T22:00:17.838Z,11.97
2023-02-13T22:02:49.674Z,12.27
2023-02-13T22:05:21.373Z,11.60
2023-02-13T22:08:11.022Z,12.87
2023-02-13T22:10:42.781Z,11.47
2023-02-13T22:13:14.448Z,10.90
2023-02-13T22:15:46.212Z,10.93
2023-02-13T22:18:17.901Z,11.57
2023-02-13T22:20:49.632Z,12.10
2023-02-13T22:23:21.373Z,10.83
2023-02-13T22:25:53.153Z,11.63
2023-02-13T22:28:24.870Z,10.47
2023-02-13T22:30:57.151Z,11.07
2023-02-13T22:33:29.074Z,10.70
2023-02-13T22:36:01.382Z,11.40
2023-02-13T22:38:34.451Z,11.67
2023-02-13T22:41:14.365Z,11.50
2023-02-13T22:43:46.084Z,11.27
2023-02-13T22:46:26.250Z,11.20
2023-02-13T22:48:59.152Z,10.53
2023-02-13T22:51:35.592Z,10.20
2023-02-13T22:54:07.346Z,11.23
2023-02-13T22:56:39.101Z,11.03
2023-02-13T22:59:11.752Z,10.40
2023-02-13T23:01:43.509Z,11.07
2023-02-13T23:04:16.460Z,11.23
2023-02-13T23:06:48.512Z,9.30
2023-02-13T23:09:20.208Z,10.20
2023-02-13T23:12:10.391Z,10.37
2023-02-13T23:14:42.139Z,10.07
2023-02-13T23:17:32.410Z,9.67
2023-02-13T23:20:04.512Z,9.13
2023-02-13T23:22:36.234Z,10.07
2023-02-13T23:25:08.727Z,9.60
2023-02-13T23:27:40.426Z,9.70
2023-02-13T23:30:14.143Z,9.87
2023-02-13T23:32:45.984Z,10.00
2023-02-13T23:35:17.818Z,9.77
2023-02-13T23:37:49.669Z,8.80
2023-02-13T23:40:21.572Z,9.70
2023-02-13T23:42:53.390Z,9.30
2023-02-13T23:45:25.123Z,10.17
2023-02-13T23:47:56.824Z,9.87
2023-02-13T23:50:28.650Z,9.77
2023-02-13T23:53:00.419Z,10.20
2023-02-13T23:55:32.140Z,10.57
2023-02-13T23:58:03.868Z,9.47
